createdAt,value
2019-02-08T00:02:47.400Z,25.40
2019-02-08T00:05:50.077Z,25.40
2019-02-08T00:08:53.730Z,25.40
2019-02-08T00:11:57.410Z,25.40
2019-02-08T00:15:05.935Z,25.40
2019-02-08T00:18:09.907Z,25.40
2019-02-08T00:21:13.721Z,25.40
2019-02-08T00:24:16.698Z,25.40
2019-02-08T00:27:16.980Z,25.40
2019-02-08T00:30:20.713Z,25.40
2019-02-08T00:33:24.169Z,25.40
2019-02-08T00:36:25.656Z,25.40
2019-02-08T00:39:29.038Z,25.40
2019-02-08T00:42:32.151Z,25.50
2019-02-08T00:45:35.844Z,25.50
2019-02-08T00:48:39.528Z,25.50
2019-02-08T00:51:38.818Z,25.50
2019-02-08T00:54:40.595Z,25.40
2019-02-08T00:57:40.061Z,25.40
2019-02-08T01:00:40.327Z,25.40
2019-02-08T01:03:44.225Z,25.40
2019-02-08T01:06:47.748Z,25.40
2019-02-08T01:09:51.504Z,25.40
2019-02-08T01:12:51.120Z,25.40
2019-02-08T01:15:55.642Z,25.40
2019-02-08T01:18:58.684Z,25.30
2019-02-08T01:22:02.341Z,25.30
2019-02-08T01:25:06.496Z,25.30
2019-02-08T01:28:10.080Z,25.30
2019-02-08T01:31:11.354Z,25.30
2019-02-08T01:34:15.074Z,25.30
2019-02-08T01:37:18.433Z,25.30
2019-02-08T01:40:22.698Z,25.30
2019-02-08T01:43:26.935Z,25.30
2019-02-08T01:46:31.157Z,25.20
2019-02-08T01:49:35.320Z,25.20
2019-02-08T01:52:31.615Z,25.20
2019-02-08T01:55:27.313Z,25.20
2019-02-08T02:01:21.914Z,25.20
2019-02-08T02:04:26.299Z,25.20
2019-02-08T02:07:35.105Z,25.20
2019-02-08T02:10:32.782Z,25.20
2019-02-08T02:13:27.792Z,25.20
2019-02-08T02:16:22.913Z,25.20
2019-02-08T02:19:23.698Z,25.20
2019-02-08T02:22:18.654Z,25.20
2019-02-08T02:25:15.012Z,25.20
2019-02-08T02:28:10.247Z,25.20
2019-02-08T02:34:00.570Z,25.20
2019-02-08T02:36:55.913Z,25.20
2019-02-08T02:39:51.034Z,25.20
2019-02-08T02:42:46.519Z,25.20
2019-02-08T02:45:50.015Z,25.20
2019-02-08T02:48:45.235Z,25.20
2019-02-08T02:51:40.805Z,25.20
2019-02-08T02:54:44.610Z,25.30
2019-02-08T02:57:40.154Z,25.30
2019-02-08T03:00:40.792Z,25.30
2019-02-08T03:03:43.828Z,25.30
2019-02-08T03:06:44.950Z,25.30
2019-02-08T03:09:43.809Z,25.30
2019-02-08T03:12:48.246Z,25.30
2019-02-08T03:15:52.503Z,25.30
2019-02-08T03:18:57.074Z,25.30
2019-02-08T03:22:00.905Z,25.40
2019-02-08T03:25:04.131Z,25.40
2019-02-08T03:28:03.658Z,25.40
2019-02-08T03:34:21.572Z,25.50
2019-02-08T03:37:27.736Z,25.50
2019-02-08T03:40:33.795Z,25.50
2019-02-08T03:43:37.228Z,25.50
2019-02-08T03:46:41.121Z,25.50
2019-02-08T03:49:39.335Z,25.50
2019-02-08T03:52:41.274Z,25.60
2019-02-08T03:59:05.116Z,25.60
2019-02-08T04:02:09.581Z,25.60
2019-02-08T04:05:15.995Z,25.70
2019-02-08T04:08:19.521Z,25.70
2019-02-08T04:11:23.236Z,25.70
2019-02-08T04:14:29.852Z,25.80
2019-02-08T04:17:30.944Z,25.80
2019-02-08T04:20:37.325Z,25.80
2019-02-08T04:23:48.064Z,25.80
2019-02-08T04:26:52.464Z,25.90
2019-02-08T04:29:56.014Z,26.00
2019-02-08T04:32:59.741Z,26.00
2019-02-08T04:35:54.572Z,26.00
2019-02-08T04:38:52.067Z,26.10
2019-02-08T04:41:48.278Z,26.10
2019-02-08T04:44:46.168Z,26.10
2019-02-08T04:47:41.065Z,26.20
2019-02-08T04:50:38.981Z,26.20
2019-02-08T04:53:34.640Z,26.20
2019-02-08T04:56:30.026Z,26.30
2019-02-08T04:59:28.355Z,26.30
2019-02-08T05:02:24.442Z,26.30
2019-02-08T05:08:53.937Z,26.20
2019-02-08T05:11:48.825Z,26.20
2019-02-08T05:14:44.043Z,26.20
2019-02-08T05:17:38.637Z,26.20
2019-02-08T05:20:41.549Z,26.20
2019-02-08T05:23:44.202Z,26.30
2019-02-08T05:26:42.098Z,26.20
2019-02-08T05:30:15.145Z,26.20
2019-02-08T05:33:25.891Z,26.30
2019-02-08T05:36:26.087Z,26.20
2019-02-08T05:39:21.731Z,26.20
2019-02-08T05:42:35.661Z,26.20
2019-02-08T05:46:41.796Z,26.20
2019-02-08T05:49:38.261Z,26.20
2019-02-08T05:52:58.067Z,26.20
2019-02-08T05:55:48.257Z,26.20
2019-02-08T05:58:57.241Z,26.20
2019-02-08T06:01:52.880Z,26.20
2019-02-08T06:04:56.587Z,26.20
2019-02-08T06:07:52.730Z,26.20
2019-02-08T06:10:50.086Z,26.30
2019-02-08T06:13:49.237Z,26.30
2019-02-08T06:17:00.498Z,26.30
2019-02-08T06:20:42.570Z,26.30
2019-02-08T06:23:50.654Z,26.30
2019-02-08T06:27:12.156Z,26.40
2019-02-08T06:30:49.782Z,26.50
2019-02-08T06:34:25.476Z,26.50
2019-02-08T06:42:57.262Z,26.70
2019-02-08T06:45:48.774Z,26.80
2019-02-08T06:48:58.471Z,26.90
2019-02-08T06:52:29.079Z,26.90
2019-02-08T06:55:47.522Z,27.00
2019-02-08T06:58:51.653Z,27.10
2019-02-08T07:02:06.569Z,27.20
2019-02-08T07:05:26.419Z,27.30
2019-02-08T07:08:29.486Z,27.40
2019-02-08T07:12:06.446Z,27.40
2019-02-08T07:15:32.037Z,27.50
2019-02-08T07:18:51.098Z,27.60
2019-02-08T07:25:46.622Z,27.70
2019-02-08T07:32:37.377Z,27.70
2019-02-08T07:36:10.995Z,27.60
2019-02-08T07:39:27.564Z,27.50
2019-02-08T07:42:46.346Z,27.40
2019-02-08T07:46:03.510Z,27.30
2019-02-08T07:49:14.849Z,27.20
2019-02-08T07:52:29.668Z,27.10
2019-02-08T07:55:50.552Z,27.00
2019-02-08T07:59:03.638Z,26.80
2019-02-08T08:02:34.331Z,26.70
2019-02-08T08:05:42.460Z,26.60
2019-02-08T08:08:55.600Z,26.50
2019-02-08T08:12:08.518Z,26.40
2019-02-08T08:15:28.449Z,26.30
2019-02-08T08:18:44.560Z,26.20
2019-02-08T08:21:58.714Z,26.10
2019-02-08T08:25:18.983Z,26.10
2019-02-08T08:28:41.291Z,26.00
2019-02-08T08:32:37.300Z,26.00
2019-02-08T08:36:25.971Z,26.00
2019-02-08T08:39:49.822Z,26.10
2019-02-08T08:43:06.718Z,26.00
2019-02-08T08:46:21.215Z,26.00
2019-02-08T08:49:53.455Z,26.00
2019-02-08T08:53:46.080Z,26.00
2019-02-08T08:57:49.052Z,25.90
2019-02-08T09:01:43.294Z,25.90
2019-02-08T09:05:14.421Z,25.80
2019-02-08T09:08:29.613Z,25.80
2019-02-08T09:11:58.800Z,25.70
2019-02-08T09:15:56.897Z,25.70
2019-02-08T09:20:09.856Z,25.60
2019-02-08T09:28:11.971Z,25.40
2019-02-08T09:32:05.672Z,25.30
2019-02-08T09:35:50.746Z,25.20
2019-02-08T09:39:24.028Z,25.20
2019-02-08T09:43:17.236Z,25.20
2019-02-08T09:51:25.730Z,25.20
2019-02-08T09:54:59.940Z,25.20
2019-02-08T09:58:27.534Z,25.20
2019-02-08T10:01:54.703Z,25.30
2019-02-08T10:05:44.615Z,25.30
2019-02-08T10:09:23.554Z,25.30
2019-02-08T10:13:16.126Z,25.40
2019-02-08T10:16:50.587Z,25.30
2019-02-08T10:20:23.357Z,25.30
2019-02-08T10:23:55.929Z,25.30
2019-02-08T10:27:42.238Z,25.30
2019-02-08T10:34:18.395Z,25.30
2019-02-08T10:38:18.345Z,25.20
2019-02-08T10:41:48.416Z,25.20
2019-02-08T10:45:25.187Z,25.20
2019-02-08T10:52:27.380Z,25.30
2019-02-08T10:56:01.634Z,25.30
2019-02-08T10:59:38.413Z,25.30
2019-02-08T11:02:44.867Z,25.30
2019-02-08T11:06:31.553Z,25.20
2019-02-08T11:10:20.849Z,25.20
2019-02-08T11:14:17.434Z,25.20
2019-02-08T11:18:04.125Z,25.10
2019-02-08T11:20:59.783Z,25.00
2019-02-08T11:23:55.625Z,25.10
2019-02-08T11:26:51.412Z,25.10
2019-02-08T11:29:46.697Z,25.10
2019-02-08T11:32:45.052Z,25.10
2019-02-08T11:35:43.826Z,25.10
2019-02-08T11:38:37.035Z,25.00
2019-02-08T11:41:38.424Z,25.00
2019-02-08T11:44:41.063Z,25.00
2019-02-08T11:47:38.866Z,25.00
2019-02-08T11:50:35.560Z,25.10
2019-02-08T11:53:34.192Z,25.10
2019-02-08T11:56:34.619Z,25.10
2019-02-08T11:59:30.632Z,25.10
2019-02-08T12:02:26.882Z,25.00
2019-02-08T12:05:26.206Z,25.10
2019-02-08T12:08:23.524Z,25.00
2019-02-08T12:11:19.283Z,25.00
2019-02-08T12:14:15.804Z,25.00
2019-02-08T12:17:12.258Z,24.90
2019-02-08T12:20:10.328Z,24.90
2019-02-08T12:23:07.230Z,24.80
2019-02-08T12:26:03.122Z,24.80
2019-02-08T12:28:58.041Z,24.70
2019-02-08T12:31:52.925Z,24.70
2019-02-08T12:34:48.800Z,24.60
2019-02-08T12:37:51.359Z,24.60
2019-02-08T12:40:47.268Z,24.50
2019-02-08T12:43:43.217Z,24.50
2019-02-08T12:46:40.759Z,24.50
2019-02-08T12:49:36.313Z,24.50
2019-02-08T12:52:31.450Z,24.40
2019-02-08T12:55:27.838Z,24.40
2019-02-08T12:58:23.614Z,24.40
2019-02-08T13:01:19.171Z,24.40
2019-02-08T13:04:14.541Z,24.30
2019-02-08T13:07:10.394Z,24.30
2019-02-08T13:10:06.973Z,24.30
2019-02-08T13:13:02.305Z,24.30
2019-02-08T13:15:57.538Z,24.30
2019-02-08T13:18:52.869Z,24.30
2019-02-08T13:21:48.242Z,24.30
2019-02-08T13:24:43.282Z,24.20
2019-02-08T13:27:40.625Z,24.20
2019-02-08T13:30:35.643Z,24.20
2019-02-08T13:33:30.904Z,24.20
2019-02-08T13:36:25.738Z,24.20
2019-02-08T13:39:21.337Z,24.20
2019-02-08T13:42:16.147Z,24.20
2019-02-08T13:45:12.461Z,24.20
2019-02-08T13:48:07.479Z,24.20
2019-02-08T13:51:01.994Z,24.10
2019-02-08T13:53:57.103Z,24.10
2019-02-08T13:57:00.210Z,24.10
2019-02-08T13:59:48.463Z,24.10
2019-02-08T14:02:43.986Z,24.10
2019-02-08T14:05:39.238Z,24.10
2019-02-08T14:08:35.732Z,24.10
2019-02-08T14:11:33.558Z,24.10
2019-02-08T14:14:28.952Z,24.00
2019-02-08T14:17:23.861Z,24.00
2019-02-08T14:20:21.508Z,24.00
2019-02-08T14:23:17.010Z,24.00
2019-02-08T14:26:12.268Z,24.00
2019-02-08T14:29:07.574Z,24.00
2019-02-08T14:32:02.691Z,24.00
2019-02-08T14:34:57.324Z,24.00
2019-02-08T14:37:52.591Z,24.00
2019-02-08T14:40:47.569Z,24.00
2019-02-08T14:43:42.496Z,24.00
2019-02-08T14:47:33.870Z,23.90
2019-02-08T14:51:00.423Z,23.90
2019-02-08T14:53:55.349Z,23.90
2019-02-08T14:56:59.697Z,23.90
2019-02-08T14:59:55.083Z,23.90
2019-02-08T15:02:50.947Z,23.80
2019-02-08T15:05:46.147Z,23.80
2019-02-08T15:08:40.893Z,23.80
2019-02-08T15:11:35.562Z,23.80
2019-02-08T15:14:30.476Z,23.80
2019-02-08T15:17:25.290Z,23.80
2019-02-08T15:20:23.370Z,23.80
2019-02-08T15:23:18.343Z,23.80
2019-02-08T15:26:12.927Z,23.80
2019-02-08T15:29:07.916Z,23.80
2019-02-08T15:32:02.728Z,23.80
2019-02-08T15:34:57.309Z,23.80
2019-02-08T15:37:52.270Z,23.90
2019-02-08T15:40:49.840Z,23.90
2019-02-08T15:43:45.061Z,23.90
2019-02-08T15:46:39.827Z,23.90
2019-02-08T15:49:34.523Z,23.90
2019-02-08T15:52:29.393Z,23.90
2019-02-08T15:55:26.849Z,23.90
2019-02-08T15:58:21.958Z,23.90
2019-02-08T16:01:17.365Z,23.90
2019-02-08T16:04:12.167Z,23.90
2019-02-08T16:07:06.861Z,23.90
2019-02-08T16:10:01.892Z,23.90
2019-02-08T16:12:56.537Z,23.90
2019-02-08T16:15:51.605Z,23.90
2019-02-08T16:18:47.042Z,23.90
2019-02-08T16:21:42.302Z,23.80
2019-02-08T16:24:37.002Z,23.80
2019-02-08T16:27:38.764Z,23.80
2019-02-08T16:30:28.960Z,23.80
2019-02-08T16:33:23.681Z,23.80
2019-02-08T16:36:18.293Z,23.70
2019-02-08T16:39:14.920Z,23.70
2019-02-08T16:42:09.518Z,23.70
2019-02-08T16:45:04.175Z,23.60
2019-02-08T16:47:59.937Z,23.60
2019-02-08T16:50:54.968Z,23.60
2019-02-08T16:53:53.571Z,23.60
2019-02-08T16:56:45.839Z,23.50
2019-02-08T16:59:40.382Z,23.50
2019-02-08T17:02:35.054Z,23.50
2019-02-08T17:05:31.008Z,23.40
2019-02-08T17:08:25.578Z,23.40
2019-02-08T17:11:20.330Z,23.40
2019-02-08T17:14:15.130Z,23.40
2019-02-08T17:17:10.057Z,23.40
2019-02-08T17:20:05.260Z,23.40
2019-02-08T17:22:59.964Z,23.40
2019-02-08T17:25:54.748Z,23.40
2019-02-08T17:28:49.599Z,23.30
2019-02-08T17:31:44.524Z,23.30
2019-02-08T17:34:39.359Z,23.30
2019-02-08T17:37:34.178Z,23.20
2019-02-08T17:40:30.898Z,23.20
2019-02-08T17:43:26.397Z,23.20
2019-02-08T17:46:21.500Z,23.20
2019-02-08T17:49:16.876Z,23.20
2019-02-08T17:52:11.584Z,23.20
2019-02-08T17:55:07.064Z,23.20
2019-02-08T17:58:03.909Z,23.10
2019-02-08T18:00:59.826Z,23.10
2019-02-08T18:03:54.863Z,23.10
2019-02-08T18:06:49.795Z,23.10
2019-02-08T18:09:44.770Z,23.10
2019-02-08T18:12:39.757Z,23.10
2019-02-08T18:15:34.517Z,23.10
2019-02-08T18:18:31.346Z,23.00
2019-02-08T18:21:25.955Z,23.00
2019-02-08T18:24:20.655Z,23.00
2019-02-08T18:27:15.472Z,22.90
2019-02-08T18:30:11.408Z,23.00
2019-02-08T18:33:06.190Z,22.90
2019-02-08T18:36:00.931Z,22.90
2019-02-08T18:38:57.264Z,22.90
2019-02-08T18:41:50.843Z,22.90
2019-02-08T18:44:45.794Z,22.90
2019-02-08T18:47:41.063Z,22.90
2019-02-08T18:50:41.368Z,22.80
2019-02-08T18:53:36.099Z,22.80
2019-02-08T18:56:30.719Z,22.80
2019-02-08T18:59:26.212Z,22.80
2019-02-08T19:02:20.977Z,22.80
2019-02-08T19:05:16.870Z,22.80
2019-02-08T19:08:12.332Z,22.80
2019-02-08T19:11:07.379Z,22.80
2019-02-08T19:14:02.030Z,22.80
2019-02-08T19:16:56.997Z,22.70
2019-02-08T19:19:51.896Z,22.70
2019-02-08T19:22:47.244Z,22.70
2019-02-08T19:25:44.148Z,22.70
2019-02-08T19:28:38.907Z,22.70
2019-02-08T19:31:33.835Z,22.60
2019-02-08T19:34:29.356Z,22.60
2019-02-08T19:37:24.198Z,22.60
2019-02-08T19:40:24.281Z,22.50
2019-02-08T19:43:19.167Z,22.50
2019-02-08T19:46:13.933Z,22.50
2019-02-08T19:49:08.544Z,22.40
2019-02-08T19:52:03.415Z,22.40
2019-02-08T19:54:58.366Z,22.40
2019-02-08T19:57:53.462Z,22.40
2019-02-08T20:00:49.468Z,22.40
2019-02-08T20:03:44.251Z,22.30
2019-02-08T20:06:39.066Z,22.30
2019-02-08T20:09:33.984Z,22.30
2019-02-08T20:12:29.383Z,22.30
2019-02-08T20:15:24.278Z,22.30
2019-02-08T20:18:19.508Z,22.20
2019-02-08T20:21:14.059Z,22.20
2019-02-08T20:24:09.217Z,22.20
2019-02-08T20:27:04.040Z,22.20
2019-02-08T20:29:58.727Z,22.10
2019-02-08T20:32:53.517Z,22.10
2019-02-08T20:35:48.086Z,22.10
2019-02-08T20:38:42.889Z,22.00
2019-02-08T20:41:37.717Z,22.00
2019-02-08T20:44:32.697Z,22.00
2019-02-08T20:47:27.549Z,22.00
2019-02-08T20:50:22.785Z,21.90
2019-02-08T20:53:17.817Z,21.90
2019-02-08T20:56:12.905Z,21.90
2019-02-08T20:59:07.775Z,21.90
2019-02-08T21:02:02.761Z,21.90
2019-02-08T21:04:57.677Z,21.80
2019-02-08T21:07:52.388Z,21.80
2019-02-08T21:10:47.521Z,21.80
2019-02-08T21:13:42.223Z,21.80
2019-02-08T21:16:37.123Z,21.80
2019-02-08T21:19:32.670Z,21.80
2019-02-08T21:22:27.175Z,21.80
2019-02-08T21:25:25.371Z,21.70
2019-02-08T21:28:20.443Z,21.70
2019-02-08T21:31:15.216Z,21.70
2019-02-08T21:34:10.045Z,21.70
2019-02-08T21:37:04.860Z,21.70
2019-02-08T21:39:59.433Z,21.70
2019-02-08T21:42:54.265Z,21.70
2019-02-08T21:45:50.078Z,21.70
2019-02-08T21:48:44.883Z,21.70
2019-02-08T21:51:39.530Z,21.70
2019-02-08T21:54:34.323Z,21.70
2019-02-08T21:57:28.887Z,21.60
2019-02-08T22:00:47.850Z,21.60
2019-02-08T22:03:42.540Z,21.60
2019-02-08T22:06:37.185Z,21.60
2019-02-08T22:09:31.874Z,21.60
2019-02-08T22:12:26.729Z,21.50
2019-02-08T22:15:24.219Z,21.50
2019-02-08T22:18:19.060Z,21.50
2019-02-08T22:21:13.661Z,21.40
2019-02-08T22:24:08.771Z,21.40
2019-02-08T22:27:03.331Z,21.30
2019-02-08T22:29:58.335Z,21.30
2019-02-08T22:32:55.745Z,21.20
2019-02-08T22:35:50.717Z,21.20
2019-02-08T22:38:45.324Z,21.20
2019-02-08T22:41:40.393Z,21.10
2019-02-08T22:44:35.267Z,21.10
2019-02-08T22:47:29.789Z,21.10
2019-02-08T22:50:24.654Z,21.10
2019-02-08T22:53:19.202Z,21.00
2019-02-08T22:56:13.924Z,21.00
2019-02-08T22:59:09.153Z,21.00
2019-02-08T23:02:04.759Z,21.00
2019-02-08T23:04:59.311Z,21.00
2019-02-08T23:07:54.102Z,20.90
2019-02-08T23:10:48.668Z,20.90
2019-02-08T23:13:43.508Z,20.90
2019-02-08T23:16:38.306Z,20.80
2019-02-08T23:19:33.171Z,20.80
2019-02-08T23:22:28.027Z,20.80
2019-02-08T23:25:22.768Z,20.80
2019-02-08T23:28:17.467Z,20.70
2019-02-08T23:31:12.030Z,20.70
2019-02-08T23:34:06.728Z,20.70
2019-02-08T23:37:01.478Z,20.70
2019-02-08T23:39:56.139Z,20.60
2019-02-08T23:42:50.916Z,20.60
2019-02-08T23:45:45.939Z,20.60
2019-02-08T23:48:40.779Z,20.50
2019-02-08T23:51:35.324Z,20.50
2019-02-08T23:54:29.983Z,20.50
2019-02-08T23:57:24.726Z,20.50
